sensor_id;sensor_type;location;lat;lon;timestamp;P1;durP1;ratioP1;P2;durP2;ratioP2
44696;SDS011;57264;47.480;19.354;2023-12-20T00:01:21;166.47;;;38.47;;
44696;SDS011;57264;47.480;19.354;2023-12-20T00:03:47;155.68;;;32.70;;
44696;SDS011;57264;47.480;19.354;2023-12-20T00:06:13;144.93;;;30.90;;
44696;SDS011;57264;47.480;19.354;2023-12-20T00:08:38;174.63;;;29.93;;
44696;SDS011;57264;47.480;19.354;2023-12-20T00:11:04;192.57;;;33.27;;
44696;SDS011;57264;47.480;19.354;2023-12-20T00:13:30;203.47;;;33.90;;
44696;SDS011;57264;47.480;19.354;2023-12-20T00:15:55;196.70;;;35.30;;
44696;SDS011;57264;47.480;19.354;2023-12-20T00:18:21;225.53;;;40.97;;
44696;SDS011;57264;47.480;19.354;2023-12-20T00:20:46;204.93;;;38.23;;
44696;SDS011;57264;47.480;19.354;2023-12-20T00:23:12;199.60;;;42.13;;
44696;SDS011;57264;47.480;19.354;2023-12-20T00:25:37;185.77;;;43.63;;
44696;SDS011;57264;47.480;19.354;2023-12-20T00:28:03;288.30;;;44.47;;
44696;SDS011;57264;47.480;19.354;2023-12-20T00:30:29;181.07;;;44.20;;
44696;SDS011;57264;47.480;19.354;2023-12-20T00:32:55;218.27;;;45.13;;
44696;SDS011;57264;47.480;19.354;2023-12-20T00:35:21;238.35;;;46.00;;
44696;SDS011;57264;47.480;19.354;2023-12-20T00:37:46;231.63;;;45.40;;
44696;SDS011;57264;47.480;19.354;2023-12-20T00:40:12;215.53;;;46.30;;
44696;SDS011;57264;47.480;19.354;2023-12-20T00:42:38;224.60;;;46.53;;
44696;SDS011;57264;47.480;19.354;2023-12-20T00:45:03;210.40;;;46.83;;
44696;SDS011;57264;47.480;19.354;2023-12-20T00:47:30;227.57;;;45.75;;
44696;SDS011;57264;47.480;19.354;2023-12-20T00:49:56;256.40;;;45.80;;
44696;SDS011;57264;47.480;19.354;2023-12-20T00:52:22;217.60;;;48.37;;
44696;SDS011;57264;47.480;19.354;2023-12-20T00:54:47;276.80;;;45.90;;
44696;SDS011;57264;47.480;19.354;2023-12-20T00:57:13;204.33;;;46.37;;
44696;SDS011;57264;47.480;19.354;2023-12-20T00:59:39;276.47;;;49.07;;
44696;SDS011;57264;47.480;19.354;2023-12-20T01:04:29;247.47;;;48.30;;
44696;SDS011;57264;47.480;19.354;2023-12-20T01:06:55;313.90;;;49.53;;
44696;SDS011;57264;47.480;19.354;2023-12-20T01:09:20;167.37;;;41.03;;
44696;SDS011;57264;47.480;19.354;2023-12-20T01:11:48;170.18;;;39.85;;
44696;SDS011;57264;47.480;19.354;2023-12-20T01:14:14;213.80;;;38.10;;
44696;SDS011;57264;47.480;19.354;2023-12-20T01:16:40;317.33;;;39.20;;
44696;SDS011;57264;47.480;19.354;2023-12-20T01:19:05;232.30;;;36.90;;
44696;SDS011;57264;47.480;19.354;2023-12-20T01:21:31;295.45;;;41.45;;
44696;SDS011;57264;47.480;19.354;2023-12-20T01:23:57;276.67;;;36.37;;
44696;SDS011;57264;47.480;19.354;2023-12-20T01:26:22;262.57;;;33.77;;
44696;SDS011;57264;47.480;19.354;2023-12-20T01:28:48;221.80;;;32.47;;
44696;SDS011;57264;47.480;19.354;2023-12-20T01:31:13;156.57;;;30.37;;
44696;SDS011;57264;47.480;19.354;2023-12-20T01:33:39;107.93;;;26.73;;
44696;SDS011;57264;47.480;19.354;2023-12-20T01:36:05;126.73;;;26.87;;
44696;SDS011;57264;47.480;19.354;2023-12-20T01:38:30;190.97;;;26.83;;
44696;SDS011;57264;47.480;19.354;2023-12-20T01:40:56;157.53;;;27.93;;
44696;SDS011;57264;47.480;19.354;2023-12-20T01:43:21;118.40;;;23.70;;
44696;SDS011;57264;47.480;19.354;2023-12-20T01:45:47;104.10;;;23.43;;
44696;SDS011;57264;47.480;19.354;2023-12-20T01:48:13;167.32;;;26.30;;
44696;SDS011;57264;47.480;19.354;2023-12-20T01:50:41;170.05;;;25.27;;
44696;SDS011;57264;47.480;19.354;2023-12-20T01:53:08;376.90;;;44.42;;
44696;SDS011;57264;47.480;19.354;2023-12-20T01:55:36;146.52;;;26.10;;
44696;SDS011;57264;47.480;19.354;2023-12-20T01:58:05;124.20;;;24.17;;
44696;SDS011;57264;47.480;19.354;2023-12-20T02:00:35;108.97;;;24.38;;
44696;SDS011;57264;47.480;19.354;2023-12-20T02:03:02;136.02;;;26.80;;
44696;SDS011;57264;47.480;19.354;2023-12-20T02:05:32;114.88;;;26.23;;
44696;SDS011;57264;47.480;19.354;2023-12-20T02:07:59;152.40;;;27.38;;
44696;SDS011;57264;47.480;19.354;2023-12-20T02:10:25;142.00;;;27.63;;
44696;SDS011;57264;47.480;19.354;2023-12-20T02:12:51;136.25;;;28.10;;
44696;SDS011;57264;47.480;19.354;2023-12-20T02:15:17;154.57;;;28.13;;
44696;SDS011;57264;47.480;19.354;2023-12-20T02:17:43;157.43;;;28.83;;
44696;SDS011;57264;47.480;19.354;2023-12-20T02:20:10;155.60;;;29.38;;
44696;SDS011;57264;47.480;19.354;2023-12-20T02:22:36;145.50;;;30.33;;
44696;SDS011;57264;47.480;19.354;2023-12-20T02:25:01;139.87;;;28.27;;
44696;SDS011;57264;47.480;19.354;2023-12-20T02:27:27;130.27;;;29.07;;
44696;SDS011;57264;47.480;19.354;2023-12-20T02:29:54;148.23;;;27.25;;
44696;SDS011;57264;47.480;19.354;2023-12-20T02:32:20;167.03;;;32.17;;
44696;SDS011;57264;47.480;19.354;2023-12-20T02:34:47;176.75;;;28.92;;
44696;SDS011;57264;47.480;19.354;2023-12-20T02:37:13;156.30;;;28.53;;
44696;SDS011;57264;47.480;19.354;2023-12-20T02:39:39;147.85;;;27.02;;
44696;SDS011;57264;47.480;19.354;2023-12-20T02:42:05;132.07;;;25.67;;
44696;SDS011;57264;47.480;19.354;2023-12-20T02:44:30;148.77;;;26.83;;
44696;SDS011;57264;47.480;19.354;2023-12-20T02:46:56;183.57;;;30.97;;
44696;SDS011;57264;47.480;19.354;2023-12-20T02:49:21;180.13;;;31.27;;
44696;SDS011;57264;47.480;19.354;2023-12-20T02:51:47;172.47;;;29.90;;
44696;SDS011;57264;47.480;19.354;2023-12-20T02:54:12;138.83;;;30.43;;
44696;SDS011;57264;47.480;19.354;2023-12-20T02:56:38;164.07;;;30.33;;
44696;SDS011;57264;47.480;19.354;2023-12-20T02:59:03;181.07;;;33.47;;
44696;SDS011;57264;47.480;19.354;2023-12-20T03:01:33;174.05;;;31.23;;
44696;SDS011;57264;47.480;19.354;2023-12-20T03:03:59;159.73;;;32.40;;
44696;SDS011;57264;47.480;19.354;2023-12-20T03:06:25;205.97;;;34.07;;
44696;SDS011;57264;47.480;19.354;2023-12-20T03:08:51;221.37;;;34.77;;
44696;SDS011;57264;47.480;19.354;2023-12-20T03:11:17;165.63;;;30.98;;
44696;SDS011;57264;47.480;19.354;2023-12-20T03:13:42;191.10;;;34.37;;
44696;SDS011;57264;47.480;19.354;2023-12-20T03:16:11;179.70;;;29.40;;
44696;SDS011;57264;47.480;19.354;2023-12-20T03:18:38;126.38;;;29.48;;
44696;SDS011;57264;47.480;19.354;2023-12-20T03:21:04;144.13;;;31.03;;
44696;SDS011;57264;47.480;19.354;2023-12-20T03:23:30;239.65;;;35.42;;
44696;SDS011;57264;47.480;19.354;2023-12-20T03:25:57;245.48;;;35.00;;
44696;SDS011;57264;47.480;19.354;2023-12-20T03:28:24;217.63;;;34.47;;
44696;SDS011;57264;47.480;19.354;2023-12-20T03:30:50;174.98;;;34.75;;
44696;SDS011;57264;47.480;19.354;2023-12-20T03:33:15;148.60;;;32.27;;
44696;SDS011;57264;47.480;19.354;2023-12-20T03:35:41;75.17;;;28.27;;
44696;SDS011;57264;47.480;19.354;2023-12-20T03:38:07;119.27;;;30.67;;
44696;SDS011;57264;47.480;19.354;2023-12-20T03:40:32;77.30;;;25.33;;
44696;SDS011;57264;47.480;19.354;2023-12-20T03:42:58;74.07;;;24.70;;
44696;SDS011;57264;47.480;19.354;2023-12-20T03:45:24;98.40;;;26.93;;
44696;SDS011;57264;47.480;19.354;2023-12-20T03:47:49;84.70;;;22.73;;
44696;SDS011;57264;47.480;19.354;2023-12-20T03:50:20;158.77;;;27.48;;
44696;SDS011;57264;47.480;19.354;2023-12-20T03:52:47;110.80;;;26.92;;
44696;SDS011;57264;47.480;19.354;2023-12-20T03:55:13;74.40;;;24.43;;
44696;SDS011;57264;47.480;19.354;2023-12-20T03:57:39;117.53;;;27.43;;
44696;SDS011;57264;47.480;19.354;2023-12-20T04:00:05;92.97;;;26.23;;
44696;SDS011;57264;47.480;19.354;2023-12-20T04:02:37;124.80;;;29.35;;
44696;SDS011;57264;47.480;19.354;2023-12-20T04:05:03;101.55;;;25.85;;
44696;SDS011;57264;47.480;19.354;2023-12-20T04:07:30;124.20;;;27.70;;
44696;SDS011;57264;47.480;19.354;2023-12-20T04:09:55;170.00;;;32.40;;
44696;SDS011;57264;47.480;19.354;2023-12-20T04:12:21;160.60;;;31.10;;
44696;SDS011;57264;47.480;19.354;2023-12-20T04:14:46;131.27;;;30.53;;
44696;SDS011;57264;47.480;19.354;2023-12-20T04:17:12;143.43;;;31.20;;
44696;SDS011;57264;47.480;19.354;2023-12-20T04:19:37;839.13;;;79.33;;
44696;SDS011;57264;47.480;19.354;2023-12-20T04:22:03;164.43;;;30.73;;
44696;SDS011;57264;47.480;19.354;2023-12-20T04:24:29;174.17;;;33.53;;
44696;SDS011;57264;47.480;19.354;2023-12-20T04:26:54;108.87;;;30.30;;
44696;SDS011;57264;47.480;19.354;2023-12-20T04:29:20;138.27;;;30.57;;
44696;SDS011;57264;47.480;19.354;2023-12-20T04:31:45;171.43;;;29.97;;
44696;SDS011;57264;47.480;19.354;2023-12-20T04:34:11;146.10;;;28.03;;
44696;SDS011;57264;47.480;19.354;2023-12-20T04:36:36;173.83;;;32.30;;
44696;SDS011;57264;47.480;19.354;2023-12-20T04:39:02;193.87;;;30.77;;
44696;SDS011;57264;47.480;19.354;2023-12-20T04:41:28;221.20;;;31.47;;
44696;SDS011;57264;47.480;19.354;2023-12-20T04:43:53;255.10;;;30.93;;
44696;SDS011;57264;47.480;19.354;2023-12-20T04:46:19;182.20;;;32.07;;
44696;SDS011;57264;47.480;19.354;2023-12-20T04:48:44;190.73;;;31.77;;
44696;SDS011;57264;47.480;19.354;2023-12-20T04:51:10;181.43;;;33.23;;
44696;SDS011;57264;47.480;19.354;2023-12-20T04:53:36;145.50;;;28.43;;
44696;SDS011;57264;47.480;19.354;2023-12-20T04:56:01;254.37;;;35.97;;
44696;SDS011;57264;47.480;19.354;2023-12-20T04:58:27;238.00;;;31.70;;
44696;SDS011;57264;47.480;19.354;2023-12-20T05:00:52;268.93;;;34.10;;
44696;SDS011;57264;47.480;19.354;2023-12-20T05:03:18;240.50;;;33.50;;
44696;SDS011;57264;47.480;19.354;2023-12-20T05:05:44;237.90;;;33.80;;
44696;SDS011;57264;47.480;19.354;2023-12-20T05:08:09;163.73;;;34.83;;
44696;SDS011;57264;47.480;19.354;2023-12-20T05:10:35;140.33;;;31.03;;
44696;SDS011;57264;47.480;19.354;2023-12-20T05:13:01;128.32;;;32.05;;
44696;SDS011;57264;47.480;19.354;2023-12-20T05:15:27;134.70;;;37.43;;
44696;SDS011;57264;47.480;19.354;2023-12-20T05:17:52;112.10;;;36.23;;
44696;SDS011;57264;47.480;19.354;2023-12-20T05:20:18;122.47;;;35.57;;
44696;SDS011;57264;47.480;19.354;2023-12-20T05:22:43;128.40;;;36.30;;
44696;SDS011;57264;47.480;19.354;2023-12-20T05:25:10;135.77;;;34.58;;
44696;SDS011;57264;47.480;19.354;2023-12-20T05:27:36;147.73;;;33.90;;
44696;SDS011;57264;47.480;19.354;2023-12-20T05:30:01;113.50;;;33.23;;
44696;SDS011;57264;47.480;19.354;2023-12-20T05:32:29;137.15;;;32.92;;
44696;SDS011;57264;47.480;19.354;2023-12-20T05:34:56;129.88;;;32.20;;
44696;SDS011;57264;47.480;19.354;2023-12-20T05:37:21;122.63;;;34.77;;
44696;SDS011;57264;47.480;19.354;2023-12-20T05:39:47;92.00;;;30.70;;
44696;SDS011;57264;47.480;19.354;2023-12-20T05:42:13;81.60;;;29.00;;
44696;SDS011;57264;47.480;19.354;2023-12-20T05:44:38;87.27;;;29.90;;
44696;SDS011;57264;47.480;19.354;2023-12-20T05:47:04;109.17;;;31.23;;
44696;SDS011;57264;47.480;19.354;2023-12-20T05:49:29;76.13;;;29.40;;
44696;SDS011;57264;47.480;19.354;2023-12-20T05:51:55;75.73;;;28.77;;
44696;SDS011;57264;47.480;19.354;2023-12-20T05:54:21;82.80;;;28.23;;
44696;SDS011;57264;47.480;19.354;2023-12-20T05:56:47;128.57;;;29.13;;
44696;SDS011;57264;47.480;19.354;2023-12-20T05:59:13;129.33;;;28.77;;
44696;SDS011;57264;47.480;19.354;2023-12-20T06:01:38;108.00;;;29.30;;
44696;SDS011;57264;47.480;19.354;2023-12-20T06:04:04;97.47;;;27.87;;
44696;SDS011;57264;47.480;19.354;2023-12-20T06:06:30;152.73;;;31.33;;
44696;SDS011;57264;47.480;19.354;2023-12-20T06:08:55;100.67;;;28.53;;
44696;SDS011;57264;47.480;19.354;2023-12-20T06:11:21;205.57;;;35.10;;
44696;SDS011;57264;47.480;19.354;2023-12-20T06:13:46;126.03;;;29.10;;
44696;SDS011;57264;47.480;19.354;2023-12-20T06:16:13;287.48;;;36.50;;
44696;SDS011;57264;47.480;19.354;2023-12-20T06:18:39;166.40;;;31.40;;
44696;SDS011;57264;47.480;19.354;2023-12-20T06:21:05;164.67;;;32.17;;
44696;SDS011;57264;47.480;19.354;2023-12-20T06:23:32;268.50;;;34.95;;
44696;SDS011;57264;47.480;19.354;2023-12-20T06:25:58;149.43;;;32.47;;
44696;SDS011;57264;47.480;19.354;2023-12-20T06:28:23;196.60;;;32.10;;
44696;SDS011;57264;47.480;19.354;2023-12-20T06:30:49;247.40;;;36.63;;
44696;SDS011;57264;47.480;19.354;2023-12-20T06:33:17;296.33;;;38.13;;
44696;SDS011;57264;47.480;19.354;2023-12-20T06:35:44;186.43;;;34.92;;
44696;SDS011;57264;47.480;19.354;2023-12-20T06:38:09;252.50;;;37.77;;
44696;SDS011;57264;47.480;19.354;2023-12-20T06:40:35;407.43;;;41.77;;
44696;SDS011;57264;47.480;19.354;2023-12-20T06:43:00;291.03;;;36.57;;
44696;SDS011;57264;47.480;19.354;2023-12-20T06:45:26;283.83;;;35.00;;
44696;SDS011;57264;47.480;19.354;2023-12-20T06:47:51;263.27;;;36.30;;
44696;SDS011;57264;47.480;19.354;2023-12-20T06:50:17;198.27;;;33.80;;
44696;SDS011;57264;47.480;19.354;2023-12-20T06:52:42;287.73;;;37.47;;
44696;SDS011;57264;47.480;19.354;2023-12-20T06:55:08;315.30;;;39.77;;
44696;SDS011;57264;47.480;19.354;2023-12-20T06:57:34;225.60;;;31.27;;
44696;SDS011;57264;47.480;19.354;2023-12-20T07:00:01;335.65;;;36.78;;
44696;SDS011;57264;47.480;19.354;2023-12-20T07:02:27;312.73;;;34.67;;
44696;SDS011;57264;47.480;19.354;2023-12-20T07:04:55;318.33;;;35.30;;
44696;SDS011;57264;47.480;19.354;2023-12-20T07:07:21;212.77;;;33.87;;
44696;SDS011;57264;47.480;19.354;2023-12-20T07:09:48;196.00;;;33.72;;
44696;SDS011;57264;47.480;19.354;2023-12-20T07:12:14;254.10;;;32.70;;
44696;SDS011;57264;47.480;19.354;2023-12-20T07:14:42;185.27;;;30.92;;
44696;SDS011;57264;47.480;19.354;2023-12-20T07:17:10;197.13;;;34.58;;
44696;SDS011;57264;47.480;19.354;2023-12-20T07:19:38;237.90;;;35.60;;
44696;SDS011;57264;47.480;19.354;2023-12-20T07:22:05;320.45;;;40.17;;
44696;SDS011;57264;47.480;19.354;2023-12-20T07:24:32;343.35;;;40.30;;
44696;SDS011;57264;47.480;19.354;2023-12-20T07:26:58;353.50;;;38.17;;
44696;SDS011;57264;47.480;19.354;2023-12-20T07:29:24;290.38;;;38.40;;
44696;SDS011;57264;47.480;19.354;2023-12-20T07:31:50;365.40;;;39.50;;
44696;SDS011;57264;47.480;19.354;2023-12-20T07:34:17;216.23;;;36.08;;
44696;SDS011;57264;47.480;19.354;2023-12-20T07:36:43;353.70;;;41.97;;
44696;SDS011;57264;47.480;19.354;2023-12-20T07:39:08;251.70;;;38.27;;
44696;SDS011;57264;47.480;19.354;2023-12-20T07:41:34;341.83;;;39.40;;
44696;SDS011;57264;47.480;19.354;2023-12-20T07:43:59;227.03;;;30.93;;
44696;SDS011;57264;47.480;19.354;2023-12-20T07:46:25;269.77;;;36.33;;
44696;SDS011;57264;47.480;19.354;2023-12-20T07:48:51;223.70;;;32.60;;
44696;SDS011;57264;47.480;19.354;2023-12-20T07:51:16;304.50;;;36.67;;
44696;SDS011;57264;47.480;19.354;2023-12-20T07:53:42;340.37;;;37.90;;
44696;SDS011;57264;47.480;19.354;2023-12-20T07:56:17;366.83;;;38.27;;
44696;SDS011;57264;47.480;19.354;2023-12-20T07:58:44;342.17;;;38.63;;
44696;SDS011;57264;47.480;19.354;2023-12-20T08:01:11;370.80;;;38.65;;
44696;SDS011;57264;47.480;19.354;2023-12-20T08:03:37;395.52;;;42.42;;
44696;SDS011;57264;47.480;19.354;2023-12-20T08:06:03;308.92;;;35.70;;
44696;SDS011;57264;47.480;19.354;2023-12-20T08:08:29;274.02;;;34.97;;
44696;SDS011;57264;47.480;19.354;2023-12-20T08:10:55;419.57;;;39.50;;
44696;SDS011;57264;47.480;19.354;2023-12-20T08:13:22;215.43;;;31.73;;
44696;SDS011;57264;47.480;19.354;2023-12-20T08:15:51;284.80;;;34.55;;
44696;SDS011;57264;47.480;19.354;2023-12-20T08:18:17;302.52;;;35.70;;
44696;SDS011;57264;47.480;19.354;2023-12-20T08:20:42;249.93;;;33.07;;
44696;SDS011;57264;47.480;19.354;2023-12-20T08:23:08;382.47;;;36.40;;
44696;SDS011;57264;47.480;19.354;2023-12-20T08:25:33;278.63;;;36.50;;
44696;SDS011;57264;47.480;19.354;2023-12-20T08:27:59;352.33;;;36.87;;
44696;SDS011;57264;47.480;19.354;2023-12-20T08:30:26;306.58;;;33.08;;
44696;SDS011;57264;47.480;19.354;2023-12-20T08:32:51;302.13;;;37.00;;
44696;SDS011;57264;47.480;19.354;2023-12-20T08:35:17;346.33;;;37.27;;
44696;SDS011;57264;47.480;19.354;2023-12-20T08:37:43;232.00;;;32.20;;
44696;SDS011;57264;47.480;19.354;2023-12-20T08:40:09;317.20;;;34.17;;
44696;SDS011;57264;47.480;19.354;2023-12-20T08:42:35;367.20;;;32.87;;
44696;SDS011;57264;47.480;19.354;2023-12-20T08:45:00;301.33;;;32.87;;
44696;SDS011;57264;47.480;19.354;2023-12-20T08:47:26;320.90;;;36.87;;
44696;SDS011;57264;47.480;19.354;2023-12-20T08:49:52;384.00;;;36.50;;
44696;SDS011;57264;47.480;19.354;2023-12-20T08:52:23;221.35;;;31.08;;
44696;SDS011;57264;47.480;19.354;2023-12-20T08:54:49;208.37;;;30.13;;
44696;SDS011;57264;47.480;19.354;2023-12-20T08:57:18;271.30;;;35.95;;
44696;SDS011;57264;47.480;19.354;2023-12-20T08:59:45;310.00;;;33.60;;
44696;SDS011;57264;47.480;19.354;2023-12-20T09:02:11;206.17;;;31.27;;
44696;SDS011;57264;47.480;19.354;2023-12-20T09:04:37;305.10;;;31.83;;
44696;SDS011;57264;47.480;19.354;2023-12-20T09:07:03;145.57;;;30.27;;
44696;SDS011;57264;47.480;19.354;2023-12-20T09:09:28;244.47;;;32.70;;
44696;SDS011;57264;47.480;19.354;2023-12-20T09:11:54;279.20;;;33.67;;
44696;SDS011;57264;47.480;19.354;2023-12-20T09:14:19;250.10;;;32.87;;
44696;SDS011;57264;47.480;19.354;2023-12-20T09:16:45;174.63;;;29.63;;
44696;SDS011;57264;47.480;19.354;2023-12-20T09:19:10;211.17;;;32.83;;
44696;SDS011;57264;47.480;19.354;2023-12-20T09:21:36;149.63;;;34.20;;
44696;SDS011;57264;47.480;19.354;2023-12-20T09:24:01;142.57;;;30.80;;
44696;SDS011;57264;47.480;19.354;2023-12-20T09:26:28;265.30;;;34.80;;
44696;SDS011;57264;47.480;19.354;2023-12-20T09:28:53;215.43;;;33.83;;
44696;SDS011;57264;47.480;19.354;2023-12-20T09:31:19;176.63;;;32.20;;
44696;SDS011;57264;47.480;19.354;2023-12-20T09:33:44;161.50;;;33.50;;
44696;SDS011;57264;47.480;19.354;2023-12-20T09:36:10;272.57;;;38.13;;
44696;SDS011;57264;47.480;19.354;2023-12-20T09:38:35;238.07;;;32.70;;
44696;SDS011;57264;47.480;19.354;2023-12-20T09:41:01;191.90;;;31.17;;
44696;SDS011;57264;47.480;19.354;2023-12-20T09:43:30;224.07;;;31.48;;
44696;SDS011;57264;47.480;19.354;2023-12-20T09:46:09;328.73;;;37.25;;
44696;SDS011;57264;47.480;19.354;2023-12-20T09:48:39;360.80;;;39.63;;
44696;SDS011;57264;47.480;19.354;2023-12-20T09:51:06;232.35;;;35.78;;
44696;SDS011;57264;47.480;19.354;2023-12-20T09:53:32;194.23;;;29.60;;
44696;SDS011;57264;47.480;19.354;2023-12-20T09:56:01;271.90;;;31.70;;
44696;SDS011;57264;47.480;19.354;2023-12-20T09:58:28;247.55;;;36.65;;
44696;SDS011;57264;47.480;19.354;2023-12-20T10:00:53;299.40;;;33.10;;
44696;SDS011;57264;47.480;19.354;2023-12-20T10:03:23;237.07;;;32.97;;
44696;SDS011;57264;47.480;19.354;2023-12-20T10:05:52;287.40;;;34.80;;
44696;SDS011;57264;47.480;19.354;2023-12-20T10:08:21;321.60;;;35.22;;
44696;SDS011;57264;47.480;19.354;2023-12-20T10:10:50;251.00;;;35.45;;
44696;SDS011;57264;47.480;19.354;2023-12-20T10:13:15;152.47;;;32.67;;
44696;SDS011;57264;47.480;19.354;2023-12-20T10:15:41;138.53;;;31.77;;
44696;SDS011;57264;47.480;19.354;2023-12-20T10:18:07;251.93;;;34.53;;
44696;SDS011;57264;47.480;19.354;2023-12-20T10:20:33;141.88;;;32.05;;
44696;SDS011;57264;47.480;19.354;2023-12-20T10:22:59;113.37;;;27.40;;
44696;SDS011;57264;47.480;19.354;2023-12-20T10:25:26;88.13;;;28.65;;
44696;SDS011;57264;47.480;19.354;2023-12-20T10:30:37;65.00;;;26.70;;
44696;SDS011;57264;47.480;19.354;2023-12-20T10:33:03;62.93;;;27.57;;
44696;SDS011;57264;47.480;19.354;2023-12-20T10:35:31;68.10;;;30.00;;
44696;SDS011;57264;47.480;19.354;2023-12-20T10:37:56;73.70;;;30.50;;
44696;SDS011;57264;47.480;19.354;2023-12-20T10:40:24;72.80;;;30.80;;
44696;SDS011;57264;47.480;19.354;2023-12-20T10:42:55;71.72;;;30.95;;
44696;SDS011;57264;47.480;19.354;2023-12-20T10:45:22;71.38;;;30.63;;
44696;SDS011;57264;47.480;19.354;2023-12-20T10:47:48;72.15;;;32.60;;
44696;SDS011;57264;47.480;19.354;2023-12-20T10:50:15;67.43;;;28.83;;
44696;SDS011;57264;47.480;19.354;2023-12-20T10:52:41;68.07;;;31.93;;
44696;SDS011;57264;47.480;19.354;2023-12-20T10:55:07;63.45;;;29.13;;
44696;SDS011;57264;47.480;19.354;2023-12-20T10:57:34;58.42;;;28.95;;
44696;SDS011;57264;47.480;19.354;2023-12-20T11:00:02;55.85;;;29.00;;
44696;SDS011;57264;47.480;19.354;2023-12-20T11:02:33;59.63;;;27.48;;
44696;SDS011;57264;47.480;19.354;2023-12-20T11:05:28;58.78;;;28.02;;
44696;SDS011;57264;47.480;19.354;2023-12-20T11:08:17;58.58;;;28.38;;
44696;SDS011;57264;47.480;19.354;2023-12-20T11:14:22;58.40;;;28.20;;
44696;SDS011;57264;47.480;19.354;2023-12-20T11:16:33;61.15;;;30.33;;
44696;SDS011;57264;47.480;19.354;2023-12-20T11:19:05;63.03;;;29.42;;
44696;SDS011;57264;47.480;19.354;2023-12-20T11:21:31;60.72;;;30.95;;
44696;SDS011;57264;47.480;19.354;2023-12-20T11:23:56;62.40;;;29.87;;
44696;SDS011;57264;47.480;19.354;2023-12-20T11:26:23;62.77;;;30.13;;
44696;SDS011;57264;47.480;19.354;2023-12-20T11:28:53;54.65;;;27.42;;
44696;SDS011;57264;47.480;19.354;2023-12-20T11:31:19;63.50;;;31.23;;
44696;SDS011;57264;47.480;19.354;2023-12-20T11:33:44;58.60;;;28.53;;
44696;SDS011;57264;47.480;19.354;2023-12-20T11:36:14;54.85;;;29.30;;
44696;SDS011;57264;47.480;19.354;2023-12-20T11:38:56;51.53;;;27.13;;
44696;SDS011;57264;47.480;19.354;2023-12-20T11:41:23;56.65;;;29.75;;
44696;SDS011;57264;47.480;19.354;2023-12-20T11:43:55;59.50;;;29.80;;
44696;SDS011;57264;47.480;19.354;2023-12-20T11:46:21;69.40;;;32.25;;
44696;SDS011;57264;47.480;19.354;2023-12-20T11:48:47;76.05;;;34.45;;
44696;SDS011;57264;47.480;19.354;2023-12-20T11:51:13;65.63;;;31.83;;
44696;SDS011;57264;47.480;19.354;2023-12-20T11:53:39;60.60;;;29.80;;
44696;SDS011;57264;47.480;19.354;2023-12-20T11:56:07;65.75;;;32.85;;
44696;SDS011;57264;47.480;19.354;2023-12-20T11:58:33;61.55;;;30.48;;
44696;SDS011;57264;47.480;19.354;2023-12-20T12:00:59;61.55;;;30.67;;
44696;SDS011;57264;47.480;19.354;2023-12-20T12:03:25;61.80;;;32.80;;
44696;SDS011;57264;47.480;19.354;2023-12-20T12:05:51;63.63;;;33.73;;
44696;SDS011;57264;47.480;19.354;2023-12-20T12:08:17;64.73;;;32.83;;
44696;SDS011;57264;47.480;19.354;2023-12-20T12:10:43;62.70;;;31.87;;
44696;SDS011;57264;47.480;19.354;2023-12-20T12:13:10;65.30;;;32.15;;
44696;SDS011;57264;47.480;19.354;2023-12-20T12:15:36;73.70;;;34.60;;
44696;SDS011;57264;47.480;19.354;2023-12-20T12:18:03;73.95;;;36.20;;
44696;SDS011;57264;47.480;19.354;2023-12-20T12:20:30;74.15;;;36.22;;
44696;SDS011;57264;47.480;19.354;2023-12-20T12:23:02;75.17;;;36.13;;
44696;SDS011;57264;47.480;19.354;2023-12-20T12:25:29;64.35;;;32.95;;
44696;SDS011;57264;47.480;19.354;2023-12-20T12:27:56;66.50;;;34.05;;
44696;SDS011;57264;47.480;19.354;2023-12-20T12:30:23;62.95;;;34.25;;
44696;SDS011;57264;47.480;19.354;2023-12-20T12:32:50;65.65;;;35.05;;
44696;SDS011;57264;47.480;19.354;2023-12-20T12:35:17;68.20;;;34.55;;
44696;SDS011;57264;47.480;19.354;2023-12-20T12:37:42;57.57;;;29.67;;
44696;SDS011;57264;47.480;19.354;2023-12-20T12:40:12;59.57;;;31.37;;
44696;SDS011;57264;47.480;19.354;2023-12-20T12:42:38;64.18;;;33.10;;
44696;SDS011;57264;47.480;19.354;2023-12-20T12:45:05;55.92;;;30.50;;
44696;SDS011;57264;47.480;19.354;2023-12-20T12:47:31;57.30;;;31.52;;
44696;SDS011;57264;47.480;19.354;2023-12-20T12:49:56;54.07;;;30.50;;
44696;SDS011;57264;47.480;19.354;2023-12-20T12:52:22;61.00;;;32.53;;
44696;SDS011;57264;47.480;19.354;2023-12-20T12:54:47;61.50;;;31.83;;
44696;SDS011;57264;47.480;19.354;2023-12-20T12:57:14;61.03;;;31.37;;
44696;SDS011;57264;47.480;19.354;2023-12-20T12:59:40;60.10;;;32.25;;
44696;SDS011;57264;47.480;19.354;2023-12-20T13:02:06;60.33;;;31.50;;
44696;SDS011;57264;47.480;19.354;2023-12-20T13:04:33;58.22;;;32.35;;
44696;SDS011;57264;47.480;19.354;2023-12-20T13:06:58;61.83;;;32.23;;
44696;SDS011;57264;47.480;19.354;2023-12-20T13:09:24;58.93;;;32.17;;
44696;SDS011;57264;47.480;19.354;2023-12-20T13:11:49;58.90;;;31.10;;
44696;SDS011;57264;47.480;19.354;2023-12-20T13:14:15;59.47;;;31.00;;
44696;SDS011;57264;47.480;19.354;2023-12-20T13:16:41;57.00;;;30.40;;
44696;SDS011;57264;47.480;19.354;2023-12-20T13:19:07;55.50;;;29.47;;
44696;SDS011;57264;47.480;19.354;2023-12-20T13:21:33;58.95;;;29.23;;
44696;SDS011;57264;47.480;19.354;2023-12-20T13:23:58;54.87;;;29.83;;
44696;SDS011;57264;47.480;19.354;2023-12-20T13:26:24;60.17;;;31.33;;
44696;SDS011;57264;47.480;19.354;2023-12-20T13:28:49;58.47;;;30.43;;
44696;SDS011;57264;47.480;19.354;2023-12-20T13:31:15;54.63;;;30.03;;
44696;SDS011;57264;47.480;19.354;2023-12-20T13:33:40;49.53;;;28.33;;
44696;SDS011;57264;47.480;19.354;2023-12-20T13:36:06;54.33;;;28.90;;
44696;SDS011;57264;47.480;19.354;2023-12-20T13:38:32;60.03;;;29.87;;
44696;SDS011;57264;47.480;19.354;2023-12-20T13:40:58;55.53;;;28.57;;
44696;SDS011;57264;47.480;19.354;2023-12-20T13:43:24;54.93;;;29.77;;
44696;SDS011;57264;47.480;19.354;2023-12-20T13:45:50;55.22;;;28.30;;
44696;SDS011;57264;47.480;19.354;2023-12-20T13:48:16;49.70;;;26.58;;
44696;SDS011;57264;47.480;19.354;2023-12-20T13:50:41;53.10;;;27.60;;
44696;SDS011;57264;47.480;19.354;2023-12-20T13:53:07;48.43;;;24.70;;
44696;SDS011;57264;47.480;19.354;2023-12-20T13:55:32;41.93;;;22.17;;
44696;SDS011;57264;47.480;19.354;2023-12-20T13:57:58;42.73;;;22.97;;
44696;SDS011;57264;47.480;19.354;2023-12-20T14:00:23;47.50;;;25.80;;
44696;SDS011;57264;47.480;19.354;2023-12-20T14:02:49;46.13;;;23.97;;
44696;SDS011;57264;47.480;19.354;2023-12-20T14:05:15;39.57;;;20.97;;